sensor_id;sensor_type;location;lat;lon;timestamp;P1;durP1;ratioP1;P2;durP2;ratioP2
44572;SDS011;31762;45.420;10.072;2022-08-05T00:04:47;1.40;;;1.20;;
44572;SDS011;31762;45.420;10.072;2022-08-05T00:09:56;3.35;;;1.33;;
44572;SDS011;31762;45.420;10.072;2022-08-05T00:14:58;1.70;;;1.40;;
44572;SDS011;31762;45.420;10.072;2022-08-05T00:20:20;2.03;;;1.83;;
44572;SDS011;31762;45.420;10.072;2022-08-05T00:25:29;3.23;;;2.03;;
44572;SDS011;31762;45.420;10.072;2022-08-05T00:30:45;2.13;;;1.60;;
44572;SDS011;31762;45.420;10.072;2022-08-05T00:35:52;2.33;;;1.42;;
44572;SDS011;31762;45.420;10.072;2022-08-05T00:41:14;2.25;;;1.20;;
44572;SDS011;31762;45.420;10.072;2022-08-05T00:46:50;1.42;;;1.33;;
44572;SDS011;31762;45.420;10.072;2022-08-05T00:52:02;1.50;;;1.10;;
44572;SDS011;31762;45.420;10.072;2022-08-05T00:57:04;3.50;;;1.10;;
44572;SDS011;31762;45.420;10.072;2022-08-05T01:02:06;2.55;;;1.10;;
44572;SDS011;31762;45.420;10.072;2022-08-05T01:07:08;2.55;;;0.93;;
44572;SDS011;31762;45.420;10.072;2022-08-05T01:12:14;1.70;;;1.08;;
44572;SDS011;31762;45.420;10.072;2022-08-05T01:33:22;3.22;;;1.52;;
44572;SDS011;31762;45.420;10.072;2022-08-05T01:38:35;3.72;;;1.77;;
44572;SDS011;31762;45.420;10.072;2022-08-05T01:43:38;2.00;;;1.40;;
44572;SDS011;31762;45.420;10.072;2022-08-05T01:48:43;1.50;;;1.20;;
44572;SDS011;31762;45.420;10.072;2022-08-05T01:53:50;1.70;;;1.37;;
44572;SDS011;31762;45.420;10.072;2022-08-05T01:59:03;1.60;;;1.30;;
44572;SDS011;31762;45.420;10.072;2022-08-05T02:04:12;3.13;;;1.65;;
44572;SDS011;31762;45.420;10.072;2022-08-05T02:09:16;3.83;;;1.80;;
44572;SDS011;31762;45.420;10.072;2022-08-05T02:14:31;1.73;;;1.60;;
44572;SDS011;31762;45.420;10.072;2022-08-05T02:19:40;2.55;;;1.95;;
44572;SDS011;31762;45.420;10.072;2022-08-05T02:24:51;2.70;;;2.07;;
44572;SDS011;31762;45.420;10.072;2022-08-05T02:30:00;2.83;;;2.20;;
44572;SDS011;31762;45.420;10.072;2022-08-05T02:35:04;4.93;;;2.42;;
44572;SDS011;31762;45.420;10.072;2022-08-05T02:40:15;4.23;;;2.60;;
44572;SDS011;31762;45.420;10.072;2022-08-05T02:45:18;3.38;;;2.60;;
44572;SDS011;31762;45.420;10.072;2022-08-05T02:50:25;4.67;;;3.00;;
44572;SDS011;31762;45.420;10.072;2022-08-05T02:55:30;3.03;;;2.40;;
44572;SDS011;31762;45.420;10.072;2022-08-05T03:00:54;3.35;;;2.50;;
44572;SDS011;31762;45.420;10.072;2022-08-05T03:05:56;4.25;;;2.63;;
44572;SDS011;31762;45.420;10.072;2022-08-05T03:11:23;2.35;;;2.15;;
44572;SDS011;31762;45.420;10.072;2022-08-05T03:16:46;4.72;;;1.90;;
44572;SDS011;31762;45.420;10.072;2022-08-05T03:21:48;3.25;;;2.38;;
44572;SDS011;31762;45.420;10.072;2022-08-05T03:26:50;4.40;;;2.50;;
44572;SDS011;31762;45.420;10.072;2022-08-05T03:31:52;3.30;;;2.30;;
44572;SDS011;31762;45.420;10.072;2022-08-05T03:37:00;5.30;;;2.47;;
44572;SDS011;31762;45.420;10.072;2022-08-05T03:42:03;3.20;;;2.37;;
44572;SDS011;31762;45.420;10.072;2022-08-05T03:47:05;4.10;;;2.20;;
44572;SDS011;31762;45.420;10.072;2022-08-05T03:52:11;3.28;;;2.72;;
44572;SDS011;31762;45.420;10.072;2022-08-05T03:57:38;5.23;;;2.93;;
44572;SDS011;31762;45.420;10.072;2022-08-05T04:02:44;2.90;;;2.58;;
44572;SDS011;31762;45.420;10.072;2022-08-05T04:08:00;3.17;;;2.50;;
44572;SDS011;31762;45.420;10.072;2022-08-05T04:13:24;3.53;;;2.72;;
44572;SDS011;31762;45.420;10.072;2022-08-05T04:18:47;2.90;;;2.60;;
44572;SDS011;31762;45.420;10.072;2022-08-05T04:23:55;4.15;;;2.90;;
44572;SDS011;31762;45.420;10.072;2022-08-05T04:29:07;3.93;;;2.87;;
44572;SDS011;31762;45.420;10.072;2022-08-05T04:34:09;3.70;;;3.40;;
44572;SDS011;31762;45.420;10.072;2022-08-05T04:39:31;3.37;;;2.33;;
44572;SDS011;31762;45.420;10.072;2022-08-05T04:44:35;5.13;;;3.05;;
44572;SDS011;31762;45.420;10.072;2022-08-05T04:49:37;4.63;;;3.90;;
44572;SDS011;31762;45.420;10.072;2022-08-05T04:54:59;5.33;;;4.10;;
44572;SDS011;31762;45.420;10.072;2022-08-05T05:00:15;5.97;;;4.57;;
44572;SDS011;31762;45.420;10.072;2022-08-05T05:05:17;6.30;;;5.57;;
44572;SDS011;31762;45.420;10.072;2022-08-05T05:10:29;5.73;;;5.20;;
44572;SDS011;31762;45.420;10.072;2022-08-05T05:15:33;6.10;;;5.50;;
44572;SDS011;31762;45.420;10.072;2022-08-05T05:20:55;6.32;;;5.72;;
44572;SDS011;31762;45.420;10.072;2022-08-05T05:25:58;6.70;;;5.68;;
44572;SDS011;31762;45.420;10.072;2022-08-05T05:31:00;6.40;;;5.40;;
44572;SDS011;31762;45.420;10.072;2022-08-05T05:36:06;6.00;;;4.57;;
44572;SDS011;31762;45.420;10.072;2022-08-05T05:41:10;4.82;;;4.40;;
44572;SDS011;31762;45.420;10.072;2022-08-05T05:46:16;8.20;;;5.88;;
44572;SDS011;31762;45.420;10.072;2022-08-05T05:51:22;14.68;;;7.15;;
44572;SDS011;31762;45.420;10.072;2022-08-05T05:56:28;7.35;;;5.10;;
44572;SDS011;31762;45.420;10.072;2022-08-05T06:01:36;12.73;;;5.40;;
44572;SDS011;31762;45.420;10.072;2022-08-05T06:06:40;10.45;;;4.90;;
44572;SDS011;31762;45.420;10.072;2022-08-05T06:11:49;5.40;;;4.70;;
44572;SDS011;31762;45.420;10.072;2022-08-05T06:17:02;5.70;;;4.13;;
44572;SDS011;31762;45.420;10.072;2022-08-05T06:22:24;6.05;;;5.45;;
44572;SDS011;31762;45.420;10.072;2022-08-05T06:27:27;6.40;;;5.30;;
44572;SDS011;31762;45.420;10.072;2022-08-05T06:32:49;8.90;;;5.63;;
44572;SDS011;31762;45.420;10.072;2022-08-05T06:37:52;7.85;;;5.68;;
44572;SDS011;31762;45.420;10.072;2022-08-05T06:42:59;5.57;;;4.67;;
44572;SDS011;31762;45.420;10.072;2022-08-05T06:48:00;5.07;;;4.57;;
44572;SDS011;31762;45.420;10.072;2022-08-05T06:53:22;7.30;;;5.93;;
44572;SDS011;31762;45.420;10.072;2022-08-05T06:58:29;5.88;;;5.28;;
44572;SDS011;31762;45.420;10.072;2022-08-05T07:03:36;6.13;;;5.53;;
44572;SDS011;31762;45.420;10.072;2022-08-05T07:08:38;11.10;;;6.35;;
44572;SDS011;31762;45.420;10.072;2022-08-05T07:13:42;7.60;;;6.60;;
44572;SDS011;31762;45.420;10.072;2022-08-05T07:19:00;7.93;;;4.97;;
44572;SDS011;31762;45.420;10.072;2022-08-05T07:24:02;6.18;;;5.57;;
44572;SDS011;31762;45.420;10.072;2022-08-05T07:29:11;7.20;;;5.72;;
44572;SDS011;31762;45.420;10.072;2022-08-05T07:34:13;5.53;;;5.03;;
44572;SDS011;31762;45.420;10.072;2022-08-05T07:39:21;5.95;;;5.32;;
44572;SDS011;31762;45.420;10.072;2022-08-05T07:44:43;7.23;;;5.57;;
44572;SDS011;31762;45.420;10.072;2022-08-05T07:49:46;6.32;;;4.90;;
44572;SDS011;31762;45.420;10.072;2022-08-05T07:54:54;5.70;;;4.87;;
44572;SDS011;31762;45.420;10.072;2022-08-05T07:59:56;4.55;;;4.15;;
44572;SDS011;31762;45.420;10.072;2022-08-05T08:04:58;10.43;;;4.03;;
44572;SDS011;31762;45.420;10.072;2022-08-05T08:10:01;5.05;;;3.97;;
44572;SDS011;31762;45.420;10.072;2022-08-05T08:15:06;5.30;;;3.77;;
44572;SDS011;31762;45.420;10.072;2022-08-05T08:20:16;7.13;;;4.23;;
44572;SDS011;31762;45.420;10.072;2022-08-05T08:25:37;4.68;;;3.58;;
44572;SDS011;31762;45.420;10.072;2022-08-05T08:30:59;6.57;;;3.47;;
44572;SDS011;31762;45.420;10.072;2022-08-05T08:36:01;4.57;;;3.28;;
44572;SDS011;31762;45.420;10.072;2022-08-05T08:41:24;4.87;;;2.57;;
44572;SDS011;31762;45.420;10.072;2022-08-05T08:46:47;2.92;;;2.50;;
44572;SDS011;31762;45.420;10.072;2022-08-05T08:51:58;1.90;;;1.55;;
44572;SDS011;31762;45.420;10.072;2022-08-05T08:57:14;2.50;;;2.30;;
44572;SDS011;31762;45.420;10.072;2022-08-05T09:02:18;2.97;;;1.63;;
44572;SDS011;31762;45.420;10.072;2022-08-05T09:07:21;2.00;;;1.27;;
44572;SDS011;31762;45.420;10.072;2022-08-05T09:12:29;3.35;;;1.75;;
44572;SDS011;31762;45.420;10.072;2022-08-05T09:17:33;3.00;;;1.30;;
44572;SDS011;31762;45.420;10.072;2022-08-05T09:28:22;3.47;;;1.25;;
44572;SDS011;31762;45.420;10.072;2022-08-05T09:33:45;1.60;;;1.27;;
44572;SDS011;31762;45.420;10.072;2022-08-05T09:38:57;2.20;;;1.42;;
44572;SDS011;31762;45.420;10.072;2022-08-05T09:44:02;1.42;;;1.33;;
44572;SDS011;31762;45.420;10.072;2022-08-05T09:49:04;2.17;;;0.98;;
44572;SDS011;31762;45.420;10.072;2022-08-05T09:54:50;1.67;;;1.10;;
44572;SDS011;31762;45.420;10.072;2022-08-05T09:59:55;2.95;;;1.60;;
44572;SDS011;31762;45.420;10.072;2022-08-05T10:05:05;3.73;;;2.43;;
44572;SDS011;31762;45.420;10.072;2022-08-05T10:10:10;3.30;;;2.00;;
44572;SDS011;31762;45.420;10.072;2022-08-05T10:20:22;4.38;;;1.90;;
44572;SDS011;31762;45.420;10.072;2022-08-05T10:25:25;5.22;;;2.40;;
44572;SDS011;31762;45.420;10.072;2022-08-05T10:30:27;2.77;;;1.40;;
44572;SDS011;31762;45.420;10.072;2022-08-05T10:35:49;2.00;;;1.63;;
44572;SDS011;31762;45.420;10.072;2022-08-05T10:46:17;2.50;;;1.73;;
44572;SDS011;31762;45.420;10.072;2022-08-05T10:51:24;3.45;;;1.52;;
44572;SDS011;31762;45.420;10.072;2022-08-05T10:57:00;2.70;;;1.67;;
44572;SDS011;31762;45.420;10.072;2022-08-05T11:02:05;2.67;;;1.33;;
44572;SDS011;31762;45.420;10.072;2022-08-05T11:07:32;3.95;;;1.70;;
44572;SDS011;31762;45.420;10.072;2022-08-05T11:12:54;3.60;;;1.23;;
44572;SDS011;31762;45.420;10.072;2022-08-05T11:29:02;1.97;;;1.07;;
44572;SDS011;31762;45.420;10.072;2022-08-05T11:34:14;1.23;;;0.90;;
44572;SDS011;31762;45.420;10.072;2022-08-05T11:45:04;2.00;;;1.20;;
44572;SDS011;31762;45.420;10.072;2022-08-05T11:50:26;2.60;;;0.90;;
44572;SDS011;31762;45.420;10.072;2022-08-05T11:55:28;1.08;;;0.85;;
44572;SDS011;31762;45.420;10.072;2022-08-05T12:00:36;2.90;;;1.10;;
44572;SDS011;31762;45.420;10.072;2022-08-05T12:05:41;1.67;;;1.00;;
44572;SDS011;31762;45.420;10.072;2022-08-05T12:10:43;1.10;;;0.80;;
44572;SDS011;31762;45.420;10.072;2022-08-05T12:15:49;1.42;;;0.70;;
44572;SDS011;31762;45.420;10.072;2022-08-05T12:20:56;1.55;;;0.80;;
44572;SDS011;31762;45.420;10.072;2022-08-05T12:26:12;1.92;;;1.60;;
44572;SDS011;31762;45.420;10.072;2022-08-05T12:31:14;1.23;;;1.00;;
44572;SDS011;31762;45.420;10.072;2022-08-05T12:36:36;3.17;;;1.08;;
44572;SDS011;31762;45.420;10.072;2022-08-05T12:41:39;1.33;;;0.80;;
44572;SDS011;31762;45.420;10.072;2022-08-05T12:46:51;0.98;;;0.80;;
44572;SDS011;31762;45.420;10.072;2022-08-05T12:51:55;0.90;;;0.73;;
44572;SDS011;31762;45.420;10.072;2022-08-05T12:57:17;2.43;;;1.20;;
44572;SDS011;31762;45.420;10.072;2022-08-05T13:02:24;2.15;;;0.82;;
44572;SDS011;31762;45.420;10.072;2022-08-05T13:07:30;1.40;;;1.00;;
44572;SDS011;31762;45.420;10.072;2022-08-05T13:12:54;1.63;;;1.10;;
44572;SDS011;31762;45.420;10.072;2022-08-05T13:17:58;1.70;;;1.00;;
44572;SDS011;31762;45.420;10.072;2022-08-05T13:23:01;1.25;;;0.90;;
44572;SDS011;31762;45.420;10.072;2022-08-05T13:28:07;1.67;;;0.85;;
44572;SDS011;31762;45.420;10.072;2022-08-05T13:33:10;1.35;;;1.00;;
44572;SDS011;31762;45.420;10.072;2022-08-05T13:38:32;1.30;;;1.20;;
44572;SDS011;31762;45.420;10.072;2022-08-05T13:43:42;2.55;;;1.20;;
44572;SDS011;31762;45.420;10.072;2022-08-05T13:48:55;2.78;;;1.10;;
44572;SDS011;31762;45.420;10.072;2022-08-05T13:54:01;1.60;;;0.90;;
44572;SDS011;31762;45.420;10.072;2022-08-05T13:59:03;2.20;;;1.10;;
44572;SDS011;31762;45.420;10.072;2022-08-05T14:04:19;1.30;;;1.07;;
44572;SDS011;31762;45.420;10.072;2022-08-05T14:09:21;1.30;;;0.98;;
44572;SDS011;31762;45.420;10.072;2022-08-05T14:14:29;2.60;;;1.10;;
44572;SDS011;31762;45.420;10.072;2022-08-05T14:19:34;1.40;;;0.98;;
44572;SDS011;31762;45.420;10.072;2022-08-05T14:24:55;2.05;;;1.00;;
44572;SDS011;31762;45.420;10.072;2022-08-05T14:29:57;1.77;;;0.90;;
44572;SDS011;31762;45.420;10.072;2022-08-05T14:34:59;1.03;;;0.83;;
44572;SDS011;31762;45.420;10.072;2022-08-05T14:40:01;1.70;;;0.90;;
44572;SDS011;31762;45.420;10.072;2022-08-05T14:45:03;1.55;;;1.10;;
44572;SDS011;31762;45.420;10.072;2022-08-05T14:50:09;2.67;;;1.02;;
44572;SDS011;31762;45.420;10.072;2022-08-05T14:55:19;1.90;;;0.90;;
44572;SDS011;31762;45.420;10.072;2022-08-05T15:00:21;1.00;;;0.80;;
44572;SDS011;31762;45.420;10.072;2022-08-05T15:05:29;2.10;;;1.10;;
44572;SDS011;31762;45.420;10.072;2022-08-05T15:10:51;2.95;;;1.35;;
44572;SDS011;31762;45.420;10.072;2022-08-05T15:15:54;1.27;;;1.17;;
44572;SDS011;31762;45.420;10.072;2022-08-05T15:20:56;1.50;;;1.00;;
44572;SDS011;31762;45.420;10.072;2022-08-05T15:26:08;1.80;;;1.20;;
44572;SDS011;31762;45.420;10.072;2022-08-05T15:31:09;1.13;;;0.80;;
44572;SDS011;31762;45.420;10.072;2022-08-05T15:36:11;1.90;;;0.80;;
44572;SDS011;31762;45.420;10.072;2022-08-05T15:41:24;1.30;;;1.20;;
44572;SDS011;31762;45.420;10.072;2022-08-05T15:46:46;3.22;;;1.23;;
44572;SDS011;31762;45.420;10.072;2022-08-05T15:51:52;1.25;;;1.02;;
44572;SDS011;31762;45.420;10.072;2022-08-05T15:57:14;1.33;;;0.85;;
44572;SDS011;31762;45.420;10.072;2022-08-05T16:02:16;2.90;;;1.00;;
44572;SDS011;31762;45.420;10.072;2022-08-05T16:07:26;2.00;;;0.90;;
44572;SDS011;31762;45.420;10.072;2022-08-05T16:12:29;1.52;;;0.85;;
44572;SDS011;31762;45.420;10.072;2022-08-05T16:17:32;1.58;;;1.00;;
44572;SDS011;31762;45.420;10.072;2022-08-05T16:22:34;1.40;;;0.73;;
44572;SDS011;31762;45.420;10.072;2022-08-05T16:27:38;3.88;;;0.98;;
44572;SDS011;31762;45.420;10.072;2022-08-05T16:33:00;1.40;;;1.07;;
44572;SDS011;31762;45.420;10.072;2022-08-05T16:38:02;2.33;;;0.87;;
44572;SDS011;31762;45.420;10.072;2022-08-05T16:43:24;2.10;;;1.05;;
44572;SDS011;31762;45.420;10.072;2022-08-05T16:48:27;3.35;;;1.10;;
44572;SDS011;31762;45.420;10.072;2022-08-05T16:53:35;3.30;;;0.87;;
44572;SDS011;31762;45.420;10.072;2022-08-05T16:59:01;0.90;;;0.70;;
44572;SDS011;31762;45.420;10.072;2022-08-05T17:04:08;1.80;;;0.80;;
44572;SDS011;31762;45.420;10.072;2022-08-05T17:09:10;2.20;;;1.10;;
44572;SDS011;31762;45.420;10.072;2022-08-05T17:14:14;1.80;;;0.73;;
44572;SDS011;31762;45.420;10.072;2022-08-05T17:19:35;3.38;;;1.10;;
44572;SDS011;31762;45.420;10.072;2022-08-05T17:24:37;1.63;;;1.02;;
44572;SDS011;31762;45.420;10.072;2022-08-05T17:29:58;3.65;;;1.30;;
44572;SDS011;31762;45.420;10.072;2022-08-05T17:35:02;1.67;;;0.98;;
44572;SDS011;31762;45.420;10.072;2022-08-05T17:40:05;1.77;;;0.77;;
44572;SDS011;31762;45.420;10.072;2022-08-05T17:45:11;2.70;;;1.33;;
44572;SDS011;31762;45.420;10.072;2022-08-05T17:50:24;2.47;;;1.83;;
44572;SDS011;31762;45.420;10.072;2022-08-05T17:55:31;7.53;;;6.60;;
44572;SDS011;31762;45.420;10.072;2022-08-05T18:00:43;3.60;;;1.10;;
44572;SDS011;31762;45.420;10.072;2022-08-05T18:05:51;1.70;;;1.00;;
44572;SDS011;31762;45.420;10.072;2022-08-05T18:10:54;1.15;;;0.93;;
44572;SDS011;31762;45.420;10.072;2022-08-05T18:15:57;1.63;;;0.90;;
44572;SDS011;31762;45.420;10.072;2022-08-05T18:20:59;3.25;;;1.20;;
44572;SDS011;31762;45.420;10.072;2022-08-05T18:26:01;1.27;;;1.17;;
44572;SDS011;31762;45.420;10.072;2022-08-05T18:31:05;6.40;;;1.70;;
44572;SDS011;31762;45.420;10.072;2022-08-05T18:36:09;1.80;;;1.40;;
44572;SDS011;31762;45.420;10.072;2022-08-05T18:41:17;3.20;;;1.47;;
44572;SDS011;31762;45.420;10.072;2022-08-05T18:46:39;1.90;;;1.60;;
44572;SDS011;31762;45.420;10.072;2022-08-05T18:51:43;2.80;;;1.30;;
44572;SDS011;31762;45.420;10.072;2022-08-05T18:57:05;2.60;;;1.00;;
44572;SDS011;31762;45.420;10.072;2022-08-05T19:02:09;1.65;;;1.00;;
44572;SDS011;31762;45.420;10.072;2022-08-05T19:07:29;2.33;;;1.52;;
44572;SDS011;31762;45.420;10.072;2022-08-05T19:12:46;2.47;;;2.20;;
44572;SDS011;31762;45.420;10.072;2022-08-05T19:17:48;6.38;;;3.10;;
44572;SDS011;31762;45.420;10.072;2022-08-05T19:23:10;4.80;;;2.17;;
44572;SDS011;31762;45.420;10.072;2022-08-05T19:28:31;2.03;;;1.77;;
44572;SDS011;31762;45.420;10.072;2022-08-05T19:33:33;2.80;;;1.60;;
44572;SDS011;31762;45.420;10.072;2022-08-05T19:38:37;2.65;;;1.85;;
44572;SDS011;31762;45.420;10.072;2022-08-05T19:43:38;4.87;;;1.73;;
44572;SDS011;31762;45.420;10.072;2022-08-05T19:49:00;1.92;;;1.63;;
44572;SDS011;31762;45.420;10.072;2022-08-05T19:54:04;7.95;;;2.13;;
44572;SDS011;31762;45.420;10.072;2022-08-05T19:59:22;3.97;;;2.30;;
44572;SDS011;31762;45.420;10.072;2022-08-05T20:04:44;2.55;;;1.80;;
44572;SDS011;31762;45.420;10.072;2022-08-05T20:09:48;4.20;;;1.70;;
44572;SDS011;31762;45.420;10.072;2022-08-05T20:14:55;3.22;;;1.80;;
44572;SDS011;31762;45.420;10.072;2022-08-05T20:19:57;1.90;;;1.70;;
44572;SDS011;31762;45.420;10.072;2022-08-05T20:24:59;2.45;;;1.70;;
44572;SDS011;31762;45.420;10.072;2022-08-05T20:30:02;2.10;;;1.52;;
44572;SDS011;31762;45.420;10.072;2022-08-05T20:35:05;2.45;;;1.60;;
44572;SDS011;31762;45.420;10.072;2022-08-05T20:40:08;2.25;;;1.83;;
44572;SDS011;31762;45.420;10.072;2022-08-05T20:45:11;2.83;;;1.90;;
44572;SDS011;31762;45.420;10.072;2022-08-05T20:50:12;2.95;;;1.55;;
44572;SDS011;31762;45.420;10.072;2022-08-05T20:55:15;3.00;;;2.15;;
44572;SDS011;31762;45.420;10.072;2022-08-05T21:00:37;1.80;;;1.38;;
44572;SDS011;31762;45.420;10.072;2022-08-05T21:05:54;3.00;;;1.67;;
44572;SDS011;31762;45.420;10.072;2022-08-05T21:10:59;3.45;;;1.80;;
44572;SDS011;31762;45.420;10.072;2022-08-05T21:16:09;2.17;;;1.50;;
44572;SDS011;31762;45.420;10.072;2022-08-05T21:21:11;2.10;;;1.73;;
44572;SDS011;31762;45.420;10.072;2022-08-05T21:26:13;2.50;;;1.52;;
44572;SDS011;31762;45.420;10.072;2022-08-05T21:31:15;4.03;;;1.60;;
44572;SDS011;31762;45.420;10.072;2022-08-05T21:36:17;3.30;;;1.70;;
44572;SDS011;31762;45.420;10.072;2022-08-05T21:41:30;4.73;;;2.00;;
44572;SDS011;31762;45.420;10.072;2022-08-05T21:46:34;2.70;;;1.70;;
44572;SDS011;31762;45.420;10.072;2022-08-05T21:51:37;2.88;;;2.17;;
44572;SDS011;31762;45.420;10.072;2022-08-05T21:56:58;3.40;;;1.80;;
44572;SDS011;31762;45.420;10.072;2022-08-05T22:02:20;4.55;;;1.67;;
44572;SDS011;31762;45.420;10.072;2022-08-05T22:07:23;2.70;;;1.93;;
44572;SDS011;31762;45.420;10.072;2022-08-05T22:12:44;3.07;;;1.87;;
44572;SDS011;31762;45.420;10.072;2022-08-05T22:17:51;2.88;;;1.75;;
44572;SDS011;31762;45.420;10.072;2022-08-05T22:23:00;2.10;;;1.57;;
44572;SDS011;31762;45.420;10.072;2022-08-05T22:28:17;2.15;;;1.80;;
44572;SDS011;31762;45.420;10.072;2022-08-05T22:33:18;2.00;;;1.75;;
44572;SDS011;31762;45.420;10.072;2022-08-05T22:38:40;2.42;;;1.80;;
44572;SDS011;31762;45.420;10.072;2022-08-05T22:43:43;3.20;;;1.70;;
44572;SDS011;31762;45.420;10.072;2022-08-05T22:48:45;3.10;;;2.00;;
44572;SDS011;31762;45.420;10.072;2022-08-05T22:53:47;2.67;;;1.50;;
44572;SDS011;31762;45.420;10.072;2022-08-05T22:58:50;1.37;;;1.27;;
44572;SDS011;31762;45.420;10.072;2022-08-05T23:03:55;1.60;;;0.80;;
44572;SDS011;31762;45.420;10.072;2022-08-05T23:08:59;1.53;;;1.07;;
44572;SDS011;31762;45.420;10.072;2022-08-05T23:14:21;1.88;;;0.70;;
44572;SDS011;31762;45.420;10.072;2022-08-05T23:19:33;1.35;;;0.95;;
44572;SDS011;31762;45.420;10.072;2022-08-05T23:24:47;1.60;;;1.00;;
44572;SDS011;31762;45.420;10.072;2022-08-05T23:29:51;1.65;;;0.75;;
44572;SDS011;31762;45.420;10.072;2022-08-05T23:34:54;1.27;;;0.90;;
44572;SDS011;31762;45.420;10.072;2022-08-05T23:39:56;1.10;;;0.80;;
44572;SDS011;31762;45.420;10.072;2022-08-05T23:45:00;0.73;;;0.70;;
44572;SDS011;31762;45.420;10.072;2022-08-05T23:50:02;1.10;;;0.60;;
44572;SDS011;31762;45.420;10.072;2022-08-05T23:55:09;0.75;;;0.50;;
